createdAt,value
2022-11-05T00:00:32.693Z,90.17
2022-11-05T00:03:17.960Z,90.39
2022-11-05T00:06:04.814Z,90.45
2022-11-05T00:08:50.124Z,90.52
2022-11-05T00:11:18.303Z,90.40
2022-11-05T00:14:03.653Z,90.71
2022-11-05T00:16:45.362Z,91.26
2022-11-05T00:19:13.566Z,91.29
2022-11-05T00:21:58.888Z,91.46
2022-11-05T00:24:43.788Z,91.70
2022-11-05T00:27:10.811Z,91.68
2022-11-05T00:29:37.426Z,91.49
2022-11-05T00:32:04.797Z,91.79
2022-11-05T00:34:31.392Z,92.21
2022-11-05T00:36:58.396Z,92.40
2022-11-05T00:39:25.451Z,92.57
2022-11-05T00:42:12.137Z,92.66
2022-11-05T00:44:57.265Z,93.07
2022-11-05T00:47:44.153Z,93.22
2022-11-05T00:50:11.899Z,92.98
2022-11-05T00:52:57.721Z,93.12
2022-11-05T00:55:30.486Z,93.24
2022-11-05T00:57:57.799Z,93.38
2022-11-05T01:00:27.074Z,93.67
2022-11-05T01:02:53.945Z,93.77
2022-11-05T01:05:20.800Z,93.93
2022-11-05T01:07:47.408Z,93.73
2022-11-05T01:10:14.123Z,94.47
2022-11-05T01:12:40.791Z,94.26
2022-11-05T01:15:07.991Z,94.11
2022-11-05T01:17:34.909Z,94.49
2022-11-05T01:20:01.786Z,94.22
2022-11-05T01:22:28.421Z,94.29
2022-11-05T01:24:55.180Z,94.51
2022-11-05T01:27:21.926Z,94.13
2022-11-05T01:29:48.610Z,94.61
2022-11-05T01:32:15.616Z,94.77
2022-11-05T01:34:42.256Z,94.37
2022-11-05T01:37:08.923Z,94.34
2022-11-05T01:39:36.109Z,94.33
2022-11-05T01:42:02.904Z,94.33
2022-11-05T01:44:59.104Z,94.46
2022-11-05T01:47:34.212Z,94.57
2022-11-05T01:50:19.973Z,94.69
2022-11-05T01:52:47.266Z,94.88
2022-11-05T01:55:14.197Z,94.80
2022-11-05T01:57:40.879Z,95.11
2022-11-05T02:00:07.996Z,95.41
2022-11-05T02:02:34.718Z,95.35
2022-11-05T02:05:04.369Z,95.31
2022-11-05T02:07:31.100Z,95.28
2022-11-05T02:10:06.982Z,95.19
2022-11-05T02:12:35.003Z,95.34
2022-11-05T02:15:01.643Z,95.13
2022-11-05T02:17:48.814Z,94.89
2022-11-05T02:20:36.236Z,95.17
2022-11-05T02:23:25.856Z,95.04
2022-11-05T02:26:18.924Z,95.03
2022-11-05T02:29:13.272Z,95.12
2022-11-05T02:32:01.592Z,95.18
2022-11-05T02:34:40.241Z,94.88
2022-11-05T02:37:16.261Z,95.25
2022-11-05T02:39:57.983Z,94.87
2022-11-05T02:42:38.539Z,95.08
2022-11-05T02:45:20.481Z,94.98
2022-11-05T02:47:59.114Z,95.11
2022-11-05T02:50:38.775Z,95.27
2022-11-05T02:53:11.658Z,94.98
2022-11-05T02:55:53.209Z,95.04
2022-11-05T02:58:19.873Z,95.11
2022-11-05T03:00:52.653Z,94.94
2022-11-05T03:03:25.312Z,94.98
2022-11-05T03:06:19.659Z,95.03
2022-11-05T03:09:10.034Z,94.94
2022-11-05T03:11:45.825Z,94.68
2022-11-05T03:14:23.024Z,94.52
2022-11-05T03:17:02.453Z,94.70
2022-11-05T03:19:49.548Z,94.60
2022-11-05T03:22:24.873Z,94.52
2022-11-05T03:24:58.698Z,94.28
2022-11-05T03:27:29.328Z,94.41
2022-11-05T03:30:02.494Z,94.42
2022-11-05T03:32:32.559Z,94.56
2022-11-05T03:35:02.452Z,94.38
2022-11-05T03:37:33.073Z,94.35
2022-11-05T03:40:01.592Z,94.66
2022-11-05T03:42:31.168Z,94.07
2022-11-05T03:44:59.981Z,94.02
2022-11-05T03:47:32.736Z,94.26
2022-11-05T03:50:04.088Z,93.93
2022-11-05T03:52:35.920Z,94.01
2022-11-05T03:55:02.586Z,93.70
2022-11-05T03:57:36.605Z,93.91
2022-11-05T04:00:07.746Z,93.71
2022-11-05T04:02:34.550Z,93.71
2022-11-05T04:05:01.258Z,93.61
2022-11-05T04:07:46.768Z,93.63
2022-11-05T04:10:31.975Z,93.57
2022-11-05T04:13:16.990Z,93.10
2022-11-05T04:16:02.266Z,93.50
2022-11-05T04:18:28.865Z,93.49
2022-11-05T04:21:14.001Z,93.28
2022-11-05T04:23:59.191Z,93.05
2022-11-05T04:26:25.786Z,93.26
2022-11-05T04:29:11.412Z,93.32
2022-11-05T04:31:38.360Z,93.51
2022-11-05T04:34:05.007Z,93.49
2022-11-05T04:36:31.649Z,93.85
2022-11-05T04:38:58.203Z,93.87
2022-11-05T04:41:24.919Z,94.21
2022-11-05T04:43:51.547Z,94.05
2022-11-05T04:46:18.132Z,94.18
2022-11-05T04:48:44.933Z,94.32
2022-11-05T04:51:11.537Z,94.54
2022-11-05T04:53:38.159Z,94.54
2022-11-05T04:56:21.004Z,94.87
2022-11-05T04:58:47.731Z,95.05
2022-11-05T05:01:20.164Z,95.06
2022-11-05T05:03:48.347Z,95.26
2022-11-05T05:06:15.198Z,95.21
2022-11-05T05:08:41.818Z,95.36
2022-11-05T05:11:11.263Z,95.32
2022-11-05T05:13:37.979Z,95.14
2022-11-05T05:16:10.194Z,95.37
2022-11-05T05:18:38.152Z,95.18
2022-11-05T05:21:27.127Z,95.23
2022-11-05T05:23:54.324Z,95.55
2022-11-05T05:26:20.894Z,95.84
2022-11-05T05:28:47.508Z,95.56
2022-11-05T05:31:15.135Z,96.04
2022-11-05T05:33:41.749Z,96.37
2022-11-05T05:36:11.505Z,96.57
2022-11-05T05:38:38.400Z,96.66
2022-11-05T05:41:06.243Z,96.81
2022-11-05T05:43:33.923Z,97.02
2022-11-05T05:46:05.013Z,97.30
2022-11-05T05:48:31.910Z,97.33
2022-11-05T05:51:05.534Z,97.50
2022-11-05T05:53:32.549Z,97.84
2022-11-05T05:55:59.557Z,97.57
2022-11-05T05:58:27.515Z,97.64
2022-11-05T06:00:54.562Z,97.57
2022-11-05T06:03:21.619Z,97.37
2022-11-05T06:05:48.644Z,97.76
2022-11-05T06:08:15.280Z,97.41
2022-11-05T06:10:42.038Z,97.41
2022-11-05T06:13:08.931Z,97.41
2022-11-05T06:15:36.175Z,97.46
2022-11-05T06:18:02.968Z,97.11
2022-11-05T06:20:29.560Z,97.12
2022-11-05T06:22:57.407Z,97.04
2022-11-05T06:25:25.477Z,97.09
2022-11-05T06:27:52.540Z,97.11
2022-11-05T06:30:19.302Z,96.95
2022-11-05T06:32:45.971Z,97.06
2022-11-05T06:35:12.754Z,97.45
2022-11-05T06:37:39.699Z,97.05
2022-11-05T06:40:07.220Z,97.23
2022-11-05T06:42:33.843Z,96.76
2022-11-05T06:45:00.438Z,96.87
2022-11-05T06:47:27.412Z,97.06
2022-11-05T06:49:54.034Z,97.17
2022-11-05T06:52:21.110Z,97.21
2022-11-05T06:54:47.715Z,97.19
2022-11-05T06:57:14.635Z,97.21
2022-11-05T06:59:41.558Z,97.00
2022-11-05T07:02:10.785Z,96.62
2022-11-05T07:04:37.459Z,96.67
2022-11-05T07:07:04.239Z,96.46
2022-11-05T07:09:30.955Z,96.86
2022-11-05T07:11:57.546Z,96.66
2022-11-05T07:14:24.128Z,96.91
2022-11-05T07:16:51.000Z,96.83
2022-11-05T07:19:17.655Z,96.95
2022-11-05T07:21:44.362Z,97.09
2022-11-05T07:24:10.966Z,97.30
2022-11-05T07:26:37.622Z,97.44
2022-11-05T07:29:04.267Z,97.17
2022-11-05T07:31:30.973Z,97.23
2022-11-05T07:33:59.264Z,97.28
2022-11-05T07:36:26.312Z,97.35
2022-11-05T07:38:58.912Z,97.23
2022-11-05T07:41:26.966Z,97.38
2022-11-05T07:43:53.689Z,97.40
2022-11-05T07:46:20.362Z,97.34
2022-11-05T07:48:46.959Z,97.42
2022-11-05T07:51:13.734Z,97.55
2022-11-05T07:53:45.057Z,97.47
2022-11-05T07:56:13.054Z,97.38
2022-11-05T07:58:39.752Z,97.62
2022-11-05T08:01:07.339Z,97.54
2022-11-05T08:03:34.650Z,97.61
2022-11-05T08:06:01.403Z,97.53
2022-11-05T08:08:28.105Z,97.76
2022-11-05T08:11:13.063Z,97.55
2022-11-05T08:13:39.822Z,97.65
2022-11-05T08:16:12.563Z,97.46
2022-11-05T08:18:39.630Z,97.74
2022-11-05T08:21:06.622Z,97.63
2022-11-05T08:23:33.622Z,97.42
2022-11-05T08:26:03.457Z,97.54
2022-11-05T08:28:30.183Z,97.24
2022-11-05T08:30:57.340Z,97.34
2022-11-05T08:33:25.290Z,96.89
2022-11-05T08:35:52.265Z,97.06
2022-11-05T08:38:19.891Z,96.99
2022-11-05T08:40:56.166Z,96.82
2022-11-05T08:43:23.340Z,96.86
2022-11-05T08:45:55.172Z,96.54
2022-11-05T08:48:21.908Z,96.36
2022-11-05T08:50:50.101Z,96.28
2022-11-05T08:53:17.411Z,96.15
2022-11-05T08:55:44.405Z,95.90
2022-11-05T08:58:15.243Z,95.71
2022-11-05T09:00:42.548Z,95.63
2022-11-05T09:03:10.000Z,95.31
2022-11-05T09:05:39.317Z,95.35
2022-11-05T09:08:07.748Z,94.83
2022-11-05T09:10:34.651Z,94.67
2022-11-05T09:13:02.675Z,94.61
2022-11-05T09:15:32.437Z,94.57
2022-11-05T09:17:59.828Z,94.77
2022-11-05T09:20:27.046Z,94.73
2022-11-05T09:22:54.126Z,94.88
2022-11-05T09:25:20.772Z,94.51
2022-11-05T09:27:52.551Z,94.55
2022-11-05T09:30:19.374Z,94.22
2022-11-05T09:32:46.014Z,94.17
2022-11-05T09:35:12.763Z,93.75
2022-11-05T09:37:39.588Z,93.95
2022-11-05T09:40:07.105Z,93.56
2022-11-05T09:42:38.262Z,93.03
2022-11-05T09:45:10.859Z,93.08
2022-11-05T09:47:41.689Z,92.35
2022-11-05T09:50:15.224Z,92.27
2022-11-05T09:52:42.018Z,92.04
2022-11-05T09:55:21.604Z,91.80
2022-11-05T09:57:57.866Z,91.24
2022-11-05T10:00:25.065Z,90.91
2022-11-05T10:02:55.716Z,90.51
2022-11-05T10:05:24.554Z,90.19
2022-11-05T10:07:57.759Z,89.78
2022-11-05T10:10:41.053Z,89.67
2022-11-05T10:13:30.471Z,89.41
2022-11-05T10:16:01.411Z,89.36
2022-11-05T10:18:40.584Z,88.92
2022-11-05T10:21:07.698Z,88.38
2022-11-05T10:23:34.709Z,87.92
2022-11-05T10:26:08.143Z,87.45
2022-11-05T10:28:35.505Z,87.20
2022-11-05T10:31:05.402Z,86.78
2022-11-05T10:33:53.843Z,84.95
2022-11-05T10:36:32.082Z,81.17
2022-11-05T10:39:10.426Z,77.04
2022-11-05T10:42:19.610Z,73.25
2022-11-05T10:45:01.616Z,71.21
2022-11-05T10:47:28.319Z,70.60
2022-11-05T10:50:11.841Z,70.45
2022-11-05T10:52:43.027Z,69.16
2022-11-05T10:55:37.039Z,67.61
2022-11-05T10:58:15.744Z,65.62
2022-11-05T11:01:00.594Z,64.75
2022-11-05T11:03:47.785Z,63.29
2022-11-05T11:06:27.321Z,62.22
2022-11-05T11:08:56.313Z,61.38
2022-11-05T11:11:38.200Z,62.59
2022-11-05T11:14:09.672Z,62.72
2022-11-05T11:16:39.485Z,62.31
2022-11-05T11:19:26.310Z,59.78
2022-11-05T11:22:05.200Z,57.38
2022-11-05T11:24:39.056Z,56.92
2022-11-05T11:27:10.547Z,57.57
2022-11-05T11:29:42.897Z,59.27
2022-11-05T11:32:20.592Z,60.97
2022-11-05T11:34:53.215Z,62.19
2022-11-05T11:37:27.499Z,63.30
2022-11-05T11:40:00.953Z,64.96
2022-11-05T11:42:31.996Z,65.87
2022-11-05T11:45:08.072Z,66.60
2022-11-05T11:47:34.830Z,66.83
2022-11-05T11:50:02.451Z,67.54
2022-11-05T11:52:30.570Z,68.26
2022-11-05T11:55:12.516Z,69.46
2022-11-05T11:57:47.373Z,69.72
2022-11-05T12:00:15.483Z,70.51
2022-11-05T12:03:20.371Z,70.67
2022-11-05T12:05:59.576Z,71.26
2022-11-05T12:09:01.973Z,71.54
2022-11-05T12:11:39.489Z,71.67
2022-11-05T12:14:27.030Z,71.84
2022-11-05T12:17:15.138Z,71.82
2022-11-05T12:19:49.243Z,72.19
2022-11-05T12:22:43.060Z,72.76
2022-11-05T12:25:21.292Z,72.38
2022-11-05T12:28:07.686Z,72.44
2022-11-05T12:30:51.856Z,72.31
2022-11-05T12:33:36.798Z,72.88
2022-11-05T12:36:09.455Z,72.66
2022-11-05T12:38:47.896Z,72.60
2022-11-05T12:41:25.310Z,72.64
2022-11-05T12:43:58.001Z,72.65
2022-11-05T12:46:50.802Z,72.23
2022-11-05T12:49:36.085Z,72.23
2022-11-05T12:52:08.710Z,72.21
2022-11-05T12:55:12.928Z,71.92
2022-11-05T12:57:44.947Z,71.80
2022-11-05T13:00:21.860Z,71.42
2022-11-05T13:02:56.576Z,70.76
2022-11-05T13:05:46.410Z,70.62
2022-11-05T13:08:28.203Z,70.64
2022-11-05T13:10:55.986Z,70.88
2022-11-05T13:13:28.517Z,70.87
2022-11-05T13:16:16.455Z,70.40
2022-11-05T13:18:47.136Z,70.37
2022-11-05T13:21:15.477Z,70.71
2022-11-05T13:23:50.007Z,70.71
2022-11-05T13:26:28.766Z,71.11
2022-11-05T13:29:39.721Z,71.11
2022-11-05T13:32:32.086Z,71.25
2022-11-05T13:34:59.844Z,71.07
2022-11-05T13:37:47.708Z,71.35
2022-11-05T13:40:18.671Z,70.62
2022-11-05T13:42:59.042Z,70.64
2022-11-05T13:45:34.453Z,70.23
2022-11-05T13:48:21.254Z,70.31
2022-11-05T13:50:56.851Z,70.08
2022-11-05T13:53:46.776Z,70.66
2022-11-05T13:56:41.563Z,70.65
2022-11-05T13:59:45.327Z,70.68
2022-11-05T14:02:17.250Z,69.98
2022-11-05T14:04:54.467Z,70.02
2022-11-05T14:07:28.201Z,70.22
2022-11-05T14:10:20.719Z,69.69
2022-11-05T14:12:53.348Z,69.31
2022-11-05T14:15:27.090Z,69.24
2022-11-05T14:18:39.859Z,68.88
2022-11-05T14:21:30.943Z,69.84
2022-11-05T14:24:24.289Z,70.16
2022-11-05T14:27:10.005Z,70.52
2022-11-05T14:29:46.362Z,71.12
2022-11-05T14:32:21.909Z,71.26
2022-11-05T14:34:56.944Z,70.69
2022-11-05T14:37:28.335Z,70.76
2022-11-05T14:39:55.647Z,70.98
2022-11-05T14:42:30.265Z,70.92
2022-11-05T14:45:19.791Z,70.98
2022-11-05T14:47:56.028Z,70.96
2022-11-05T14:50:30.287Z,71.17
2022-11-05T14:53:12.503Z,71.27
2022-11-05T14:55:41.897Z,71.20
2022-11-05T14:58:33.325Z,71.33
2022-11-05T15:01:01.660Z,71.66
2022-11-05T15:03:31.346Z,71.80
2022-11-05T15:06:20.273Z,71.85
2022-11-05T15:08:49.943Z,71.53
2022-11-05T15:11:37.660Z,71.66
2022-11-05T15:14:04.411Z,71.37
2022-11-05T15:16:35.490Z,71.41
2022-11-05T15:19:02.691Z,70.91
2022-11-05T15:21:33.415Z,71.30
2022-11-05T15:24:04.851Z,71.15
2022-11-05T15:26:41.723Z,71.61
2022-11-05T15:29:21.682Z,71.64
2022-11-05T15:31:49.614Z,71.61
2022-11-05T15:34:25.495Z,71.36
2022-11-05T15:36:56.147Z,71.29
2022-11-05T15:39:29.563Z,71.36
2022-11-05T15:41:57.787Z,71.21
2022-11-05T15:44:28.906Z,71.72
2022-11-05T15:47:06.658Z,71.69
2022-11-05T15:49:33.509Z,71.92
2022-11-05T15:52:00.520Z,72.06
2022-11-05T15:54:31.195Z,71.97
2022-11-05T15:56:59.400Z,72.37
2022-11-05T15:59:27.726Z,72.26
2022-11-05T16:01:58.166Z,72.19
2022-11-05T16:04:30.944Z,72.11
2022-11-05T16:07:00.140Z,72.65
2022-11-05T16:09:38.307Z,72.07
2022-11-05T16:12:21.694Z,72.51
2022-11-05T16:15:18.835Z,72.57
2022-11-05T16:17:47.134Z,72.63
2022-11-05T16:20:30.811Z,72.60
2022-11-05T16:23:02.737Z,72.89
2022-11-05T16:25:39.719Z,73.01
2022-11-05T16:28:26.321Z,73.23
2022-11-05T16:30:53.810Z,73.03
2022-11-05T16:33:20.419Z,73.48
2022-11-05T16:35:53.339Z,73.43
2022-11-05T16:38:20.430Z,74.00
2022-11-05T16:40:47.162Z,73.96
2022-11-05T16:43:35.486Z,73.88
2022-11-05T16:46:23.104Z,74.27
2022-11-05T16:49:01.745Z,74.62
2022-11-05T16:51:31.235Z,74.48
2022-11-05T16:53:59.885Z,74.48
2022-11-05T16:56:26.740Z,74.76
2022-11-05T16:58:53.460Z,74.68
2022-11-05T17:01:21.870Z,74.97
2022-11-05T17:03:50.298Z,75.26
2022-11-05T17:06:18.199Z,74.97
2022-11-05T17:08:48.089Z,75.26
2022-11-05T17:11:20.118Z,75.30
2022-11-05T17:13:47.621Z,75.18
2022-11-05T17:16:16.759Z,75.57
2022-11-05T17:18:44.011Z,75.75
2022-11-05T17:21:11.354Z,75.66
2022-11-05T17:23:40.564Z,75.58
2022-11-05T17:26:10.246Z,75.91
2022-11-05T17:28:37.994Z,75.95
2022-11-05T17:31:06.816Z,76.17
2022-11-05T17:33:34.062Z,76.05
2022-11-05T17:36:00.962Z,76.32
2022-11-05T17:38:27.821Z,75.94
2022-11-05T17:40:54.808Z,76.33
2022-11-05T17:43:50.642Z,76.43
2022-11-05T17:46:17.519Z,76.66
2022-11-05T17:48:45.028Z,76.58
2022-11-05T17:51:17.301Z,76.75
2022-11-05T17:53:44.958Z,76.84
2022-11-05T17:56:14.069Z,76.99
2022-11-05T17:58:41.431Z,77.03
2022-11-05T18:01:09.600Z,77.24
2022-11-05T18:03:36.520Z,77.18
2022-11-05T18:06:09.322Z,77.27
2022-11-05T18:08:36.471Z,77.55
2022-11-05T18:11:14.885Z,77.58
2022-11-05T18:13:44.963Z,77.25
2022-11-05T18:16:17.542Z,77.42
2022-11-05T18:18:44.224Z,77.82
2022-11-05T18:21:10.880Z,77.85
2022-11-05T18:23:37.762Z,77.87
2022-11-05T18:26:11.255Z,77.85
2022-11-05T18:28:38.199Z,78.00
2022-11-05T18:31:08.272Z,77.89
2022-11-05T18:33:35.084Z,78.01
2022-11-05T18:36:01.736Z,78.15
2022-11-05T18:38:28.507Z,78.59
2022-11-05T18:40:55.188Z,78.41
2022-11-05T18:43:21.817Z,78.82
2022-11-05T18:45:55.919Z,78.49
2022-11-05T18:48:22.689Z,78.69
2022-11-05T18:50:49.617Z,79.15
2022-11-05T18:53:16.257Z,79.29
2022-11-05T18:55:42.945Z,79.28
2022-11-05T18:58:09.796Z,79.27
2022-11-05T19:00:39.244Z,79.44
2022-11-05T19:03:09.723Z,79.48
2022-11-05T19:05:39.589Z,79.49
2022-11-05T19:08:10.507Z,79.68
2022-11-05T19:10:40.719Z,80.07
2022-11-05T19:13:07.404Z,80.01
2022-11-05T19:15:34.080Z,80.19
2022-11-05T19:18:00.748Z,80.37
2022-11-05T19:20:28.133Z,80.46
2022-11-05T19:22:54.905Z,80.84
2022-11-05T19:25:21.534Z,80.88
2022-11-05T19:27:48.250Z,80.61
2022-11-05T19:30:14.998Z,81.03
2022-11-05T19:32:44.198Z,81.15
2022-11-05T19:35:20.012Z,81.56
2022-11-05T19:37:46.687Z,81.38
2022-11-05T19:40:20.444Z,81.69
2022-11-05T19:42:47.388Z,81.81
2022-11-05T19:45:42.858Z,81.88
2022-11-05T19:48:07.870Z,82.16
2022-11-05T19:50:35.131Z,82.19
2022-11-05T19:53:02.161Z,82.39
2022-11-05T19:55:28.957Z,82.30
2022-11-05T19:57:55.606Z,82.31
2022-11-05T20:00:22.319Z,82.48
2022-11-05T20:02:49.080Z,82.86
2022-11-05T20:05:15.867Z,82.63
2022-11-05T20:07:45.009Z,83.03
2022-11-05T20:10:15.097Z,83.18
2022-11-05T20:12:41.682Z,83.36
2022-11-05T20:15:08.712Z,83.26
2022-11-05T20:17:35.605Z,83.55
2022-11-05T20:20:02.233Z,83.55
2022-11-05T20:22:28.930Z,83.25
2022-11-05T20:24:55.602Z,83.34
2022-11-05T20:27:22.219Z,83.20
2022-11-05T20:29:49.093Z,83.03
2022-11-05T20:32:15.726Z,83.30
2022-11-05T20:34:42.407Z,83.05
2022-11-05T20:37:09.147Z,82.96
2022-11-05T20:39:37.067Z,82.87
2022-11-05T20:42:03.766Z,82.78
2022-11-05T20:44:30.396Z,82.64
2022-11-05T20:46:57.066Z,82.80
2022-11-05T20:49:25.646Z,82.86
2022-11-05T20:51:52.887Z,82.56
2022-11-05T20:54:19.536Z,82.60
2022-11-05T20:56:46.149Z,82.45
2022-11-05T20:59:12.822Z,82.53
2022-11-05T21:01:39.695Z,83.00
2022-11-05T21:04:06.709Z,82.51
2022-11-05T21:06:34.946Z,82.73
2022-11-05T21:09:02.290Z,82.26
2022-11-05T21:11:29.046Z,82.56
2022-11-05T21:13:55.715Z,82.32
2022-11-05T21:16:22.545Z,82.95
2022-11-05T21:18:49.200Z,82.44
2022-11-05T21:21:20.335Z,82.66
2022-11-05T21:23:47.441Z,82.50
2022-11-05T21:26:15.121Z,82.75
2022-11-05T21:28:42.159Z,82.88
2022-11-05T21:31:09.551Z,83.07
2022-11-05T21:33:36.336Z,82.95
2022-11-05T21:36:08.695Z,82.79
2022-11-05T21:38:35.462Z,82.82
2022-11-05T21:41:03.080Z,83.05
2022-11-05T21:43:29.830Z,82.77
2022-11-05T21:45:56.459Z,83.00
2022-11-05T21:48:23.113Z,82.84
2022-11-05T21:51:11.352Z,82.98
2022-11-05T21:53:57.989Z,83.00
2022-11-05T21:56:44.923Z,82.92
2022-11-05T21:59:32.472Z,83.10
2022-11-05T22:02:02.602Z,83.02
2022-11-05T22:04:30.666Z,83.24
2022-11-05T22:06:57.551Z,82.77
2022-11-05T22:09:24.899Z,82.84
2022-11-05T22:11:51.956Z,82.69
2022-11-05T22:14:18.583Z,82.84
2022-11-05T22:16:45.417Z,82.91
2022-11-05T22:19:12.020Z,83.00
2022-11-05T22:21:38.760Z,82.84
2022-11-05T22:24:06.152Z,82.76
2022-11-05T22:26:33.408Z,82.84
2022-11-05T22:29:00.047Z,82.77
2022-11-05T22:31:29.463Z,82.72
2022-11-05T22:33:58.582Z,82.63
2022-11-05T22:36:25.607Z,82.54
2022-11-05T22:38:52.444Z,82.58
2022-11-05T22:41:22.049Z,82.85
2022-11-05T22:43:49.343Z,82.78
2022-11-05T22:46:21.501Z,82.85
2022-11-05T22:48:48.670Z,83.12
2022-11-05T22:51:20.442Z,83.03
2022-11-05T22:53:47.143Z,83.12
2022-11-05T22:56:16.434Z,82.83
2022-11-05T22:58:43.416Z,82.79
2022-11-05T23:01:11.953Z,82.73
2022-11-05T23:03:40.257Z,82.36
2022-11-05T23:06:30.622Z,82.62
2022-11-05T23:09:16.532Z,82.50
2022-11-05T23:11:45.310Z,82.57
2022-11-05T23:14:13.242Z,82.44
2022-11-05T23:17:03.547Z,82.50
2022-11-05T23:19:49.817Z,82.58
2022-11-05T23:22:37.513Z,82.72
2022-11-05T23:25:05.304Z,82.36
2022-11-05T23:27:34.081Z,82.54
2022-11-05T23:30:02.386Z,82.85
2022-11-05T23:32:31.579Z,82.90
2022-11-05T23:34:59.051Z,82.76
2022-11-05T23:37:48.160Z,82.90
2022-11-05T23:40:20.602Z,82.90
2022-11-05T23:43:19.936Z,83.05
2022-11-05T23:45:55.361Z,83.45
2022-11-05T23:48:22.261Z,83.15
2022-11-05T23:51:06.846Z,83.26
2022-11-05T23:53:35.351Z,83.17
2022-11-05T23:56:05.532Z,83.38
2022-11-05T23:58:32.443Z,83.66
